Time;durP1;ratioP1;P1;durP2;ratioP2;P2;SDS_P1;SDS_P2;PMS_P1;PMS_P2;Temp;Humidity;BMP_temperature;BMP_pressure;BME280_temperature;BME280_humidity;BME280_pressure;Samples;Min_cycle;Max_cycle;Signal;HPM_P1;HPM_P2
2023/10/16 00:01:54;;;;;;;19.05;7.00;;;;;;;;;;5031391;28;20040;-55
2023/10/16 00:04:21;;;;;;;16.17;6.90;;;;;;;;;;5031276;28;20025;-55
2023/10/16 00:06:50;;;;;;;18.85;7.28;;;;;;;;;;5031360;28;20068;-57
2023/10/16 00:09:21;;;;;;;17.38;6.82;;;;;;;;;;5029806;28;20064;-51
2023/10/16 00:11:47;;;;;;;22.55;8.52;;;;;;;;;;5031350;28;20028;-57
2023/10/16 00:14:23;;;;;;;16.15;7.63;;;;;;;;;;5031219;28;20080;-51
2023/10/16 00:16:50;;;;;;;17.25;7.28;;;;;;;;;;5031428;28;20097;-54
2023/10/16 00:19:16;;;;;;;16.52;7.50;;;;;;;;;;5030924;28;20018;-54
2023/10/16 00:21:45;;;;;;;17.88;7.57;;;;;;;;;;5031245;28;20021;-57
2023/10/16 00:24:15;;;;;;;23.75;7.82;;;;;;;;;;5031132;28;20024;-53
2023/10/16 00:26:48;;;;;;;17.60;7.63;;;;;;;;;;5031254;28;20017;-55
2023/10/16 00:29:24;;;;;;;17.85;7.40;;;;;;;;;;5029580;28;20025;-57
2023/10/16 00:31:58;;;;;;;18.60;7.65;;;;;;;;;;5030864;28;20021;-52
2023/10/16 00:34:24;;;;;;;16.40;7.68;;;;;;;;;;5031236;28;20478;-57
2023/10/16 00:36:53;;;;;;;20.02;7.85;;;;;;;;;;5031402;28;20479;-53
2023/10/16 00:39:20;;;;;;;16.80;7.20;;;;;;;;;;5029540;28;20022;-53
2023/10/16 00:41:50;;;;;;;16.90;7.53;;;;;;;;;;5029779;28;20021;-56
2023/10/16 00:44:17;;;;;;;19.95;7.97;;;;;;;;;;5030807;28;20045;-53
2023/10/16 00:46:45;;;;;;;21.00;8.45;;;;;;;;;;5029860;28;20022;-54
2023/10/16 00:49:14;;;;;;;16.67;7.57;;;;;;;;;;5031834;28;20112;-57
2023/10/16 00:51:41;;;;;;;21.70;8.00;;;;;;;;;;5035038;28;20029;-55
2023/10/16 00:54:17;;;;;;;19.00;7.75;;;;;;;;;;5034861;28;20029;-55
2023/10/16 00:56:43;;;;;;;16.58;6.82;;;;;;;;;;5021420;28;20020;-54
2023/10/16 00:59:12;;;;;;;18.00;7.53;;;;;;;;;;5023034;28;20108;-53
2023/10/16 01:01:43;;;;;;;19.45;8.70;;;;;;;;;;5015379;28;20594;-55
2023/10/16 01:04:09;;;;;;;17.08;7.78;;;;;;;;;;5020219;28;20124;-53
2023/10/16 01:06:40;;;;;;;17.58;8.27;;;;;;;;;;5033661;28;20018;-55
2023/10/16 01:09:10;;;;;;;18.15;7.82;;;;;;;;;;5025619;28;20022;-57
2023/10/16 01:11:39;;;;;;;16.30;6.95;;;;;;;;;;5025664;28;20025;-55
2023/10/16 01:14:06;;;;;;;19.23;8.45;;;;;;;;;;5034633;28;20055;-56
2023/10/16 01:16:32;;;;;;;18.40;7.97;;;;;;;;;;5026798;28;20018;-53
2023/10/16 01:19:00;;;;;;;19.27;8.20;;;;;;;;;;5033205;28;20116;-56
2023/10/16 01:21:27;;;;;;;17.45;8.18;;;;;;;;;;5034358;28;20028;-57
2023/10/16 01:23:55;;;;;;;19.23;8.18;;;;;;;;;;5034429;28;20369;-54
2023/10/16 01:26:24;;;;;;;18.65;7.53;;;;;;;;;;5033153;28;20124;-56
2023/10/16 01:28:50;;;;;;;18.02;7.95;;;;;;;;;;5034514;28;20021;-55
2023/10/16 01:31:16;;;;;;;23.92;8.18;;;;;;;;;;5033026;28;20034;-53
2023/10/16 01:33:44;;;;;;;15.77;6.75;;;;;;;;;;5025769;28;20029;-57
2023/10/16 01:36:10;;;;;;;20.02;8.15;;;;;;;;;;5034106;28;20079;-53
2023/10/16 01:38:36;;;;;;;20.42;7.97;;;;;;;;;;5032987;28;20216;-52
2023/10/16 01:41:07;;;;;;;;;;;;;;;;;;;;;
2023/10/16 01:43:32;;;;;;;17.45;7.97;;;;;;;;;;5034306;28;20029;-49
2023/10/16 01:46:00;;;;;;;18.63;8.50;;;;;;;;;;5034145;28;20041;-53
2023/10/16 01:48:30;;;;;;;18.98;8.05;;;;;;;;;;5033834;28;20437;-54
2023/10/16 01:50:57;;;;;;;19.58;8.77;;;;;;;;;;5014713;28;20030;-55
2023/10/16 01:53:25;;;;;;;19.38;7.38;;;;;;;;;;5014185;28;20534;-55
2023/10/16 01:55:54;;;;;;;21.88;9.60;;;;;;;;;;5023844;28;20052;-50
2023/10/16 01:58:21;;;;;;;;;;;;;;;;;;5015712;28;20018;-53
2023/10/16 02:00:47;;;;;;;18.88;8.82;;;;;;;;;;5033629;28;20362;-55
2023/10/16 02:03:17;;;;;;;17.60;7.45;;;;;;;;;;5032122;28;20030;-55
2023/10/16 02:05:45;;;;;;;20.05;8.48;;;;;;;;;;5033787;28;20028;-55
2023/10/16 02:08:12;;;;;;;21.10;8.10;;;;;;;;;;5033412;28;20568;-57
2023/10/16 02:10:38;;;;;;;23.25;7.88;;;;;;;;;;5032189;28;20036;-54
2023/10/16 02:13:04;;;;;;;20.75;9.25;;;;;;;;;;5033632;28;20021;-52
2023/10/16 02:15:30;;;;;;;21.85;9.10;;;;;;;;;;5030391;28;20427;-56
2023/10/16 02:17:56;;;;;;;19.95;8.15;;;;;;;;;;5027145;28;20084;-56
2023/10/16 02:20:26;;;;;;;19.80;7.22;;;;;;;;;;5024971;28;20030;-51
2023/10/16 02:22:53;;;;;;;20.73;8.02;;;;;;;;;;5033277;28;20025;-52
2023/10/16 02:25:19;;;;;;;18.13;8.07;;;;;;;;;;5033186;28;20021;-51
2023/10/16 02:27:46;;;;;;;20.08;8.32;;;;;;;;;;5033414;28;20080;-55
2023/10/16 02:30:28;;;;;;;19.23;9.00;;;;;;;;;;5031399;28;20076;-52
2023/10/16 02:32:59;;;;;;;23.60;8.88;;;;;;;;;;5026734;28;20121;-52
2023/10/16 02:35:25;;;;;;;20.83;10.38;;;;;;;;;;5031929;28;20032;-57
2023/10/16 02:37:53;;;;;;;21.10;9.43;;;;;;;;;;5033060;28;20018;-54
2023/10/16 02:40:19;;;;;;;;;;;;;;;;;;5025170;28;20045;-55
2023/10/16 02:42:51;;;;;;;21.55;9.10;;;;;;;;;;5013652;28;20414;-54
2023/10/16 02:45:26;;;;;;;19.50;8.57;;;;;;;;;;5013576;28;20156;-52
2023/10/16 02:47:53;;;;;;;22.83;9.27;;;;;;;;;;5012413;28;20411;-52
2023/10/16 02:50:19;;;;;;;21.67;9.23;;;;;;;;;;5016671;28;20036;-55
2023/10/16 02:52:47;;;;;;;17.85;8.20;;;;;;;;;;5029168;28;20026;-52
2023/10/16 02:55:14;;;;;;;20.35;8.35;;;;;;;;;;5030632;28;20502;-53
2023/10/16 02:57:40;;;;;;;20.67;9.82;;;;;;;;;;5025483;28;20028;-56
2023/10/16 03:00:08;;;;;;;18.38;8.55;;;;;;;;;;5031101;28;20025;-55
2023/10/16 03:02:35;;;;;;;20.05;9.75;;;;;;;;;;5031223;28;20026;-55
2023/10/16 03:05:11;;;;;;;21.40;9.40;;;;;;;;;;5024467;28;20049;-55
2023/10/16 03:07:39;;;;;;;22.58;9.88;;;;;;;;;;5029106;28;20033;-52
2023/10/16 03:10:08;;;;;;;25.00;10.38;;;;;;;;;;5027507;28;20030;-50
2023/10/16 03:12:34;;;;;;;20.95;9.55;;;;;;;;;;5032485;28;20029;-51
2023/10/16 03:15:04;;;;;;;21.40;9.48;;;;;;;;;;5025992;28;20433;-56
2023/10/16 03:19:57;;;;;;;19.90;8.90;;;;;;;;;;5012606;28;20499;-55
2023/10/16 03:22:23;;;;;;;21.38;9.85;;;;;;;;;;5012682;28;20022;-57
2023/10/16 03:24:50;;;;;;;19.38;9.63;;;;;;;;;;5009623;28;20030;-52
2023/10/16 03:27:31;;;;;;;24.85;9.23;;;;;;;;;;5012483;28;20022;-51
2023/10/16 03:29:57;;;;;;;20.40;9.40;;;;;;;;;;5031686;28;20482;-56
2023/10/16 03:32:23;;;;;;;21.23;10.52;;;;;;;;;;5031480;28;20048;-54
2023/10/16 03:34:51;;;;;;;20.83;9.75;;;;;;;;;;5030465;28;20024;-57
2023/10/16 03:37:17;;;;;;;22.90;9.23;;;;;;;;;;5031724;28;20452;-53
2023/10/16 03:39:44;;;;;;;24.33;9.65;;;;;;;;;;5031434;28;20021;-55
2023/10/16 03:42:11;;;;;;;20.45;10.40;;;;;;;;;;5030296;28;20026;-53
2023/10/16 03:44:39;;;;;;;22.90;9.65;;;;;;;;;;5031734;28;20402;-53
2023/10/16 03:47:07;;;;;;;20.60;9.20;;;;;;;;;;5012187;28;20030;-57
2023/10/16 03:49:33;;;;;;;22.60;10.27;;;;;;;;;;5011897;28;20026;-54
2023/10/16 03:52:00;;;;;;;22.23;10.13;;;;;;;;;;5012255;28;20033;-54
2023/10/16 03:54:35;;;;;;;21.63;10.45;;;;;;;;;;5012060;28;20395;-55
2023/10/16 03:57:01;;;;;;;21.38;9.95;;;;;;;;;;5011722;28;20109;-54
2023/10/16 03:59:29;;;;;;;20.20;10.13;;;;;;;;;;5006566;28;20097;-53
2023/10/16 04:01:56;;;;;;;19.80;10.15;;;;;;;;;;5019889;28;20020;-53
2023/10/16 04:04:25;;;;;;;20.90;10.77;;;;;;;;;;5025729;28;20431;-55
2023/10/16 04:06:56;;;;;;;20.27;10.10;;;;;;;;;;5010783;28;20480;-57
2023/10/16 04:09:22;;;;;;;21.20;10.63;;;;;;;;;;5011902;28;20034;-52
2023/10/16 04:11:54;;;;;;;21.75;9.93;;;;;;;;;;5011885;28;20484;-52
2023/10/16 04:14:28;;;;;;;23.02;10.30;;;;;;;;;;5011841;28;20488;-54
2023/10/16 04:16:55;;;;;;;19.48;9.55;;;;;;;;;;5010715;28;20033;-55
2023/10/16 04:24:30;;;;;;;21.13;10.23;;;;;;;;;;5031356;28;20025;-53
2023/10/16 04:27:22;;;;;;;21.25;10.98;;;;;;;;;;5030057;28;20032;-50
2023/10/16 04:29:49;;;;;;;20.45;10.10;;;;;;;;;;5017434;28;20478;-55
2023/10/16 04:35:29;;;;;;;20.08;10.40;;;;;;;;;;5031253;28;20037;-57
2023/10/16 04:38:27;;;;;;;17.30;9.63;;;;;;;;;;5024914;28;20495;-55
2023/10/16 04:44:22;;;;;;;19.88;10.43;;;;;;;;;;5030783;28;20059;-55
2023/10/16 04:46:55;;;;;;;21.90;9.75;;;;;;;;;;5030885;28;20018;-55
2023/10/16 04:49:28;;;;;;;22.35;11.07;;;;;;;;;;5017443;28;20026;-58
2023/10/16 04:52:01;;;;;;;23.75;10.68;;;;;;;;;;5011115;28;20510;-54
2023/10/16 04:54:37;;;;;;;19.15;10.00;;;;;;;;;;5011393;28;20037;-57
2023/10/16 05:02:18;;;;;;;20.13;10.13;;;;;;;;;;5011241;28;20029;-57
2023/10/16 05:07:45;;;;;;;22.10;9.63;;;;;;;;;;5016937;28;20403;-56
2023/10/16 05:10:12;;;;;;;20.73;10.73;;;;;;;;;;5031203;28;20048;-50
2023/10/16 05:15:51;;;;;;;21.45;10.18;;;;;;;;;;5028798;28;20087;-56
2023/10/16 05:18:42;;;;;;;21.42;10.70;;;;;;;;;;5027859;28;20470;-56
2023/10/16 05:21:51;;;;;;;21.77;11.18;;;;;;;;;;5029912;28;20030;-55
2023/10/16 06:16:20;;;;;;;19.48;9.27;;;;;;;;;;5004812;28;20030;-62
2023/10/16 06:18:47;;;;;;;21.45;9.35;;;;;;;;;;5008741;28;20022;-63
2023/10/16 06:21:16;;;;;;;20.33;9.82;;;;;;;;;;5022438;28;20030;-64
2023/10/16 06:23:42;;;;;;;22.38;9.88;;;;;;;;;;5019626;28;20034;-61
2023/10/16 06:26:09;;;;;;;19.70;9.32;;;;;;;;;;5025020;28;20025;-63
2023/10/16 06:28:35;;;;;;;18.58;9.77;;;;;;;;;;5024464;28;20053;-63
2023/10/16 06:31:01;;;;;;;20.25;10.27;;;;;;;;;;5024651;28;20030;-63
2023/10/16 06:33:28;;;;;;;19.50;9.82;;;;;;;;;;5014006;28;20037;-62
2023/10/16 06:35:54;;;;;;;20.83;9.45;;;;;;;;;;5023697;28;20014;-63
2023/10/16 06:38:21;;;;;;;23.48;10.07;;;;;;;;;;5025097;28;20026;-61
2023/10/16 06:40:47;;;;;;;20.70;9.63;;;;;;;;;;5022792;28;20025;-61
2023/10/16 06:43:14;;;;;;;19.02;9.30;;;;;;;;;;5024226;28;20077;-60
2023/10/16 06:45:57;;;;;;;19.00;10.30;;;;;;;;;;5024415;28;20022;-63
2023/10/16 06:48:27;;;;;;;20.67;9.82;;;;;;;;;;5009238;28;20035;-59
2023/10/16 06:50:54;;;;;;;19.88;10.18;;;;;;;;;;5008559;28;20030;-62
2023/10/16 06:53:22;;;;;;;20.65;11.30;;;;;;;;;;5016766;28;20038;-62
2023/10/16 06:55:50;;;;;;;19.30;10.32;;;;;;;;;;5024288;28;20065;-62
2023/10/16 06:58:18;;;;;;;23.00;10.20;;;;;;;;;;5023357;28;20030;-63
2023/10/16 07:00:47;;;;;;;19.13;9.88;;;;;;;;;;5011523;28;20052;-62
2023/10/16 07:03:13;;;;;;;22.10;11.23;;;;;;;;;;5013270;28;20048;-63
2023/10/16 07:05:42;;;;;;;21.38;9.25;;;;;;;;;;5014736;28;20458;-63
2023/10/16 07:08:18;;;;;;;21.92;10.02;;;;;;;;;;5011221;28;20026;-61
2023/10/16 07:10:52;;;;;;;24.42;10.38;;;;;;;;;;5010461;28;20013;-58
2023/10/16 07:13:26;;;;;;;19.75;9.45;;;;;;;;;;5003102;28;20404;-57
2023/10/16 07:15:53;;;;;;;18.60;9.90;;;;;;;;;;5009333;28;20450;-59
2023/10/16 07:18:24;;;;;;;18.10;10.40;;;;;;;;;;5009268;28;20029;-58
2023/10/16 07:20:55;;;;;;;18.63;10.05;;;;;;;;;;5008644;28;20028;-60
2023/10/16 07:23:24;;;;;;;19.13;9.25;;;;;;;;;;4992544;28;20038;-58
2023/10/16 07:25:57;;;;;;;22.73;10.70;;;;;;;;;;5010488;28;20025;-59
2023/10/16 07:28:23;;;;;;;19.80;10.43;;;;;;;;;;5010643;28;20399;-60
2023/10/16 07:30:50;;;;;;;18.08;10.10;;;;;;;;;;5010597;28;20029;-58
2023/10/16 07:33:16;;;;;;;18.17;10.15;;;;;;;;;;5002178;28;20550;-60
2023/10/16 07:35:45;;;;;;;18.67;9.57;;;;;;;;;;5009199;28;20014;-58
2023/10/16 07:38:12;;;;;;;18.45;10.68;;;;;;;;;;4995362;28;20460;-61
2023/10/16 07:40:38;;;;;;;19.13;11.05;;;;;;;;;;4988012;28;20062;-61
2023/10/16 07:43:08;;;;;;;18.52;9.75;;;;;;;;;;4989457;28;20164;-55
2023/10/16 07:45:34;;;;;;;19.38;10.32;;;;;;;;;;4993935;28;20053;-54
2023/10/16 07:48:20;;;;;;;22.85;10.50;;;;;;;;;;4994770;28;20035;-57
2023/10/16 07:50:47;;;;;;;24.17;10.90;;;;;;;;;;4993519;28;20030;-57
2023/10/16 07:53:17;;;;;;;19.08;10.02;;;;;;;;;;4994582;28;20033;-57
2023/10/16 07:55:50;;;;;;;20.45;11.00;;;;;;;;;;4994877;28;20388;-57
2023/10/16 07:58:16;;;;;;;19.50;10.70;;;;;;;;;;4994568;28;20333;-60
2023/10/16 08:00:58;;;;;;;18.42;9.95;;;;;;;;;;4994749;28;20075;-58
2023/10/16 08:03:24;;;;;;;18.00;10.13;;;;;;;;;;4994799;28;20460;-56
2023/10/16 08:05:52;;;;;;;20.77;11.15;;;;;;;;;;4993512;28;20036;-56
2023/10/16 08:08:25;;;;;;;18.70;11.20;;;;;;;;;;4995140;28;20089;-55
2023/10/16 08:10:52;;;;;;;22.65;12.35;;;;;;;;;;4994706;28;20030;-56
2023/10/16 08:13:23;;;;;;;19.25;10.52;;;;;;;;;;4993952;28;20026;-59
2023/10/16 08:15:51;;;;;;;18.02;10.68;;;;;;;;;;4994239;28;20046;-59
2023/10/16 08:18:18;;;;;;;17.90;10.07;;;;;;;;;;4992558;28;20062;-59
2023/10/16 08:20:50;;;;;;;20.20;10.82;;;;;;;;;;4993818;28;20022;-59
2023/10/16 08:23:21;;;;;;;18.63;10.25;;;;;;;;;;4993608;28;20146;-56
2023/10/16 08:25:47;;;;;;;17.77;9.73;;;;;;;;;;4994003;28;20046;-59
2023/10/16 08:28:32;;;;;;;17.52;10.40;;;;;;;;;;4992484;28;20026;-58
2023/10/16 08:31:09;;;;;;;19.13;10.48;;;;;;;;;;4994047;28;20030;-59
2023/10/16 08:33:35;;;;;;;19.02;9.90;;;;;;;;;;4993117;28;20114;-56
2023/10/16 08:36:04;;;;;;;19.48;9.55;;;;;;;;;;4993741;28;20098;-56
2023/10/16 08:38:32;;;;;;;;;;;;;;;;;;4992695;28;20019;-55
2023/10/16 08:41:07;;;;;;;17.55;9.63;;;;;;;;;;4993312;28;19909;-53
2023/10/16 08:46:18;;;;;;;18.60;10.20;;;;;;;;;;4994590;28;20068;-57
2023/10/16 08:48:52;;;;;;;18.83;10.68;;;;;;;;;;4993877;28;20034;-57
2023/10/16 08:51:19;;;;;;;20.42;9.90;;;;;;;;;;4993454;28;20023;-59
2023/10/16 08:53:45;;;;;;;17.85;9.52;;;;;;;;;;4993608;28;20707;-55
2023/10/16 08:56:17;;;;;;;19.02;9.52;;;;;;;;;;4993831;28;20101;-58
2023/10/16 08:58:46;;;;;;;19.35;10.40;;;;;;;;;;4993404;28;20043;-58
2023/10/16 09:01:14;;;;;;;19.42;10.00;;;;;;;;;;4993837;28;20053;-59
2023/10/16 09:03:44;;;;;;;17.63;9.63;;;;;;;;;;4993159;28;20054;-59
2023/10/16 09:06:13;;;;;;;17.33;9.23;;;;;;;;;;4994727;28;20030;-58
2023/10/16 09:08:41;;;;;;;19.55;9.20;;;;;;;;;;4996622;28;20050;-57
2023/10/16 09:11:08;;;;;;;19.88;10.70;;;;;;;;;;4995898;28;20042;-58
2023/10/16 09:13:38;;;;;;;20.10;9.50;;;;;;;;;;4996798;28;20476;-59
2023/10/16 09:16:11;;;;;;;18.15;9.70;;;;;;;;;;4996443;28;20022;-59
2023/10/16 09:18:37;;;;;;;16.40;8.82;;;;;;;;;;4995393;28;20025;-57
2023/10/16 09:21:13;;;;;;;19.17;10.35;;;;;;;;;;4996782;28;20073;-59
2023/10/16 09:23:39;;;;;;;17.63;9.70;;;;;;;;;;4997048;28;20081;-59
2023/10/16 09:26:10;;;;;;;21.63;10.30;;;;;;;;;;4996595;28;20420;-57
2023/10/16 09:28:36;;;;;;;19.27;10.30;;;;;;;;;;4995951;28;20068;-55
2023/10/16 09:31:06;;;;;;;16.77;9.65;;;;;;;;;;4996252;28;20062;-60
2023/10/16 09:33:35;;;;;;;21.10;10.10;;;;;;;;;;4996374;28;20050;-60
2023/10/16 09:36:23;;;;;;;18.70;10.00;;;;;;;;;;4995946;28;20030;-58
2023/10/16 09:38:56;;;;;;;19.27;9.98;;;;;;;;;;4997194;28;20105;-61
2023/10/16 09:44:07;;;;;;;22.35;11.10;;;;;;;;;;4997066;28;20030;-57
2023/10/16 09:49:13;;;;;;;;;;;;;;;;;;4995395;28;20113;-53
2023/10/16 09:51:39;;;;;;;18.15;9.80;;;;;;;;;;5003109;28;19906;-54
2023/10/16 09:54:09;;;;;;;17.58;10.40;;;;;;;;;;5010237;28;20439;-57
2023/10/16 09:56:38;;;;;;;16.00;9.52;;;;;;;;;;4995868;28;20441;-53
2023/10/16 09:59:12;;;;;;;19.92;10.30;;;;;;;;;;4993432;28;20030;-57
2023/10/16 10:01:42;;;;;;;19.35;11.43;;;;;;;;;;4999222;28;20022;-56
2023/10/16 10:04:10;;;;;;;18.60;9.98;;;;;;;;;;5000842;28;20085;-56
2023/10/16 10:06:39;;;;;;;;;;;;;;;;;;5013634;28;20022;-56
2023/10/16 10:12:37;;;;;;;16.85;11.15;;;;;;;;;;5017857;28;20022;-60
2023/10/16 10:14:48;;;;;;;18.77;11.57;;;;;;;;;;5010847;28;20460;-54
2023/10/16 10:17:20;;;;;;;16.33;10.63;;;;;;;;;;5010969;28;20093;-58
2023/10/16 10:19:46;;;;;;;21.05;11.02;;;;;;;;;;5007201;28;20163;-57
2023/10/16 10:22:26;;;;;;;16.33;10.60;;;;;;;;;;5014451;28;20424;-55
2023/10/16 10:25:16;;;;;;;17.15;10.90;;;;;;;;;;5006340;28;20028;-56
2023/10/16 10:27:42;;;;;;;31.75;11.35;;;;;;;;;;4995857;28;20014;-54
2023/10/16 10:30:17;;;;;;;21.90;11.20;;;;;;;;;;4995008;28;20022;-55
2023/10/16 10:32:43;;;;;;;18.48;11.02;;;;;;;;;;4992723;28;20100;-56
2023/10/16 10:35:22;;;;;;;21.63;11.25;;;;;;;;;;4994980;28;20015;-57
2023/10/16 10:37:48;;;;;;;17.27;10.30;;;;;;;;;;4995442;28;20145;-56
2023/10/16 10:40:21;;;;;;;18.33;10.85;;;;;;;;;;4994944;28;20054;-57
2023/10/16 10:42:47;;;;;;;17.55;10.80;;;;;;;;;;4992745;28;20029;-53
2023/10/16 10:45:29;;;;;;;18.73;11.30;;;;;;;;;;4994578;28;20026;-58
2023/10/16 10:47:56;;;;;;;17.70;10.57;;;;;;;;;;4994576;28;20034;-54
2023/10/16 10:50:22;;;;;;;18.98;10.50;;;;;;;;;;4994505;28;20034;-56
2023/10/16 10:52:48;;;;;;;18.40;10.70;;;;;;;;;;5000181;28;20444;-58
2023/10/16 10:55:18;;;;;;;18.35;10.75;;;;;;;;;;5005548;28;20329;-53
2023/10/16 10:57:48;;;;;;;18.17;10.75;;;;;;;;;;4996819;28;20018;-57
2023/10/16 11:00:43;;;;;;;17.45;10.10;;;;;;;;;;4996623;28;20014;-58
2023/10/16 11:03:10;;;;;;;17.33;10.02;;;;;;;;;;5011415;28;20026;-55
2023/10/16 11:05:40;;;;;;;20.15;10.07;;;;;;;;;;5011980;28;20049;-56
2023/10/16 11:10:41;;;;;;;16.70;9.48;;;;;;;;;;4995729;28;20018;-59
2023/10/16 11:13:11;;;;;;;18.23;10.50;;;;;;;;;;5002185;28;20022;-58
2023/10/16 11:15:37;;;;;;;17.13;9.70;;;;;;;;;;4999679;28;20029;-59
2023/10/16 11:18:21;;;;;;;18.50;10.02;;;;;;;;;;5002205;28;20022;-59
2023/10/16 11:20:49;;;;;;;16.95;10.68;;;;;;;;;;5011404;28;20014;-57
2023/10/16 11:23:16;;;;;;;17.33;10.32;;;;;;;;;;5011444;28;20026;-59
2023/10/16 11:25:46;;;;;;;17.58;10.23;;;;;;;;;;5003498;28;20497;-59
2023/10/16 11:28:20;;;;;;;17.83;9.70;;;;;;;;;;5011566;28;20036;-59
2023/10/16 11:30:46;;;;;;;16.42;9.50;;;;;;;;;;5010366;28;20028;-59
2023/10/16 11:33:12;;;;;;;16.10;9.35;;;;;;;;;;5009633;28;20060;-59
2023/10/16 11:35:43;;;;;;;15.68;10.15;;;;;;;;;;5012000;28;20021;-58
2023/10/16 11:38:19;;;;;;;15.35;9.48;;;;;;;;;;5011343;28;20439;-60
2023/10/16 11:40:47;;;;;;;16.80;10.13;;;;;;;;;;4997333;28;20018;-59
2023/10/16 11:43:18;;;;;;;16.80;10.37;;;;;;;;;;4997464;28;20087;-54
2023/10/16 11:45:45;;;;;;;15.35;9.90;;;;;;;;;;4999333;28;20352;-60
2023/10/16 11:50:54;;;;;;;16.02;9.93;;;;;;;;;;4999139;28;20034;-59
2023/10/16 11:53:23;;;;;;;16.33;9.35;;;;;;;;;;5002153;28;20032;-59
2023/10/16 11:55:50;;;;;;;16.83;9.85;;;;;;;;;;4992174;28;20016;-60
2023/10/16 11:58:16;;;;;;;17.17;10.07;;;;;;;;;;4989038;28;20033;-59
2023/10/16 12:00:53;;;;;;;16.60;10.10;;;;;;;;;;5003217;28;20499;-60
2023/10/16 12:03:19;;;;;;;16.25;10.27;;;;;;;;;;5010948;28;20099;-60
2023/10/16 12:05:45;;;;;;;15.32;10.10;;;;;;;;;;5003276;28;20368;-59
2023/10/16 12:08:11;;;;;;;17.23;10.27;;;;;;;;;;5010488;28;20032;-57
2023/10/16 12:10:38;;;;;;;16.63;9.73;;;;;;;;;;5010731;28;20025;-59
2023/10/16 12:13:04;;;;;;;19.38;10.23;;;;;;;;;;5003411;28;20030;-57
2023/10/16 12:15:31;;;;;;;14.95;9.90;;;;;;;;;;5009861;28;20018;-60
2023/10/16 12:18:00;;;;;;;15.25;9.85;;;;;;;;;;5009916;28;20053;-58
2023/10/16 12:20:27;;;;;;;15.73;10.10;;;;;;;;;;5011998;28;20029;-61
2023/10/16 12:22:58;;;;;;;15.02;9.60;;;;;;;;;;5012565;28;20551;-59
2023/10/16 12:25:24;;;;;;;17.08;10.07;;;;;;;;;;5011835;28;20507;-58
2023/10/16 12:27:53;;;;;;;16.33;9.98;;;;;;;;;;5011009;28;20065;-59
2023/10/16 12:30:19;;;;;;;18.45;10.05;;;;;;;;;;5004446;28;20026;-61
2023/10/16 12:32:46;;;;;;;15.65;9.00;;;;;;;;;;5003871;28;20062;-62
2023/10/16 12:35:12;;;;;;;15.40;9.32;;;;;;;;;;5010716;28;20022;-59
2023/10/16 12:37:41;;;;;;;16.50;10.43;;;;;;;;;;5010511;28;20383;-62
2023/10/16 12:42:55;;;;;;;15.95;10.30;;;;;;;;;;4995051;28;20049;-59
2023/10/16 12:45:25;;;;;;;15.75;9.88;;;;;;;;;;4993317;28;20026;-57
2023/10/16 12:47:51;;;;;;;15.20;9.60;;;;;;;;;;4997434;28;20052;-58
2023/10/16 12:50:18;;;;;;;17.13;10.90;;;;;;;;;;5014331;28;20404;-61
2023/10/16 12:52:44;;;;;;;15.68;10.00;;;;;;;;;;5014797;28;20018;-59
2023/10/16 12:55:11;;;;;;;17.27;10.23;;;;;;;;;;5007211;28;20537;-62
2023/10/16 12:57:39;;;;;;;15.68;10.43;;;;;;;;;;5007163;28;20079;-59
2023/10/16 13:00:15;;;;;;;14.93;10.27;;;;;;;;;;5005479;28;20018;-61
2023/10/16 13:02:45;;;;;;;16.00;10.65;;;;;;;;;;4996268;28;20042;-60
2023/10/16 13:05:13;;;;;;;17.60;11.88;;;;;;;;;;5011938;28;20021;-62
2023/10/16 13:07:41;;;;;;;14.93;10.80;;;;;;;;;;5014744;28;20025;-63
2023/10/16 13:10:08;;;;;;;16.95;11.98;;;;;;;;;;5014459;28;20037;-62
2023/10/16 13:12:36;;;;;;;15.60;10.63;;;;;;;;;;5014860;28;20427;-59
2023/10/16 13:15:03;;;;;;;15.70;11.00;;;;;;;;;;5014069;28;20038;-62
2023/10/16 13:17:29;;;;;;;15.65;10.30;;;;;;;;;;5001513;28;20447;-61
2023/10/16 13:19:55;;;;;;;14.90;10.15;;;;;;;;;;4994451;28;20026;-60
2023/10/16 13:22:22;;;;;;;15.45;10.05;;;;;;;;;;4995592;28;20037;-59
2023/10/16 13:24:48;;;;;;;16.60;10.18;;;;;;;;;;4993380;28;20073;-62
2023/10/16 13:27:18;;;;;;;15.57;10.38;;;;;;;;;;4994891;28;20034;-61
2023/10/16 13:29:45;;;;;;;15.00;9.98;;;;;;;;;;4990315;28;20022;-59
2023/10/16 13:32:12;;;;;;;18.13;10.15;;;;;;;;;;4995068;28;20025;-59
2023/10/16 13:34:38;;;;;;;15.27;9.95;;;;;;;;;;4994408;28;20057;-59
2023/10/16 13:37:10;;;;;;;16.23;9.68;;;;;;;;;;4994064;28;20022;-60
2023/10/16 13:39:39;;;;;;;16.33;10.00;;;;;;;;;;4993609;28;20500;-62
2023/10/16 13:42:09;;;;;;;14.73;9.80;;;;;;;;;;4994479;28;20022;-56
2023/10/16 13:44:39;;;;;;;17.60;10.82;;;;;;;;;;4995297;28;20026;-59
2023/10/16 13:47:05;;;;;;;15.93;11.23;;;;;;;;;;4994699;28;20113;-59
2023/10/16 13:49:37;;;;;;;16.30;9.73;;;;;;;;;;4989203;28;20105;-60
2023/10/16 13:52:07;;;;;;;16.63;9.70;;;;;;;;;;5009759;28;20089;-60
2023/10/16 13:54:33;;;;;;;15.20;10.10;;;;;;;;;;5005736;28;20446;-57
2023/10/16 13:57:01;;;;;;;16.20;9.65;;;;;;;;;;5007768;28;20045;-57
2023/10/16 13:59:27;;;;;;;18.52;10.77;;;;;;;;;;5002115;28;20025;-56
2023/10/16 14:01:53;;;;;;;15.05;10.25;;;;;;;;;;4994533;28;20037;-59
2023/10/16 14:04:25;;;;;;;14.68;10.15;;;;;;;;;;4992692;28;20113;-59
2023/10/16 14:06:51;;;;;;;15.77;9.65;;;;;;;;;;4994169;28;20129;-58
2023/10/16 14:09:32;;;;;;;14.85;9.57;;;;;;;;;;4994722;28;20093;-59
2023/10/16 14:12:01;;;;;;;17.75;9.77;;;;;;;;;;5003210;28;20025;-59
2023/10/16 14:14:28;;;;;;;16.05;9.50;;;;;;;;;;5013671;28;20037;-60
2023/10/16 14:17:04;;;;;;;15.15;10.38;;;;;;;;;;5012263;28;20037;-61
2023/10/16 14:19:30;;;;;;;16.55;10.60;;;;;;;;;;4998853;28;20403;-61
2023/10/16 14:22:05;;;;;;;15.07;10.50;;;;;;;;;;5006812;28;20097;-61
2023/10/16 14:24:31;;;;;;;18.67;10.07;;;;;;;;;;4997247;28;20483;-60
2023/10/16 14:26:58;;;;;;;15.52;10.13;;;;;;;;;;5007300;28;20030;-61
2023/10/16 14:29:24;;;;;;;16.45;10.55;;;;;;;;;;5019710;28;20030;-59
2023/10/16 14:31:51;;;;;;;18.38;11.02;;;;;;;;;;5012072;28;20025;-55
2023/10/16 14:34:21;;;;;;;16.08;10.07;;;;;;;;;;5013317;28;20026;-61
2023/10/16 14:36:48;;;;;;;15.90;10.68;;;;;;;;;;5013279;28;20021;-57
2023/10/16 14:39:14;;;;;;;18.95;10.65;;;;;;;;;;5007949;28;20403;-56
2023/10/16 14:41:41;;;;;;;16.50;10.25;;;;;;;;;;5013692;28;20486;-59
2023/10/16 14:44:09;;;;;;;16.30;10.65;;;;;;;;;;5012690;28;20084;-58
2023/10/16 14:46:36;;;;;;;15.27;10.23;;;;;;;;;;5012300;28;20033;-58
2023/10/16 14:49:02;;;;;;;15.00;10.57;;;;;;;;;;5012396;28;20025;-57
2023/10/16 14:51:30;;;;;;;16.88;10.20;;;;;;;;;;5010728;28;20504;-60
2023/10/16 14:53:56;;;;;;;16.65;10.43;;;;;;;;;;5002596;28;20108;-59
2023/10/16 14:56:23;;;;;;;18.38;10.45;;;;;;;;;;5007811;28;20161;-60
2023/10/16 14:58:52;;;;;;;15.93;10.52;;;;;;;;;;5007679;28;20023;-59
2023/10/16 15:01:19;;;;;;;15.63;10.60;;;;;;;;;;5009991;28;20030;-59
2023/10/16 15:03:47;;;;;;;17.45;9.73;;;;;;;;;;5006468;28;20033;-60
2023/10/16 15:06:15;;;;;;;16.75;9.95;;;;;;;;;;4992700;28;20026;-57
2023/10/16 15:08:42;;;;;;;16.77;10.40;;;;;;;;;;4992952;28;20054;-58
2023/10/16 15:11:10;;;;;;;16.45;10.45;;;;;;;;;;4992810;28;20071;-59
2023/10/16 15:13:37;;;;;;;18.42;10.30;;;;;;;;;;4992767;28;20030;-59
2023/10/16 15:16:06;;;;;;;16.05;10.15;;;;;;;;;;4991132;28;20053;-59
2023/10/16 15:18:33;;;;;;;18.75;10.68;;;;;;;;;;4992397;28;20018;-55
2023/10/16 15:21:00;;;;;;;15.30;9.57;;;;;;;;;;4992129;28;20480;-57
2023/10/16 15:23:26;;;;;;;17.60;9.95;;;;;;;;;;4992652;28;20034;-59
2023/10/16 15:25:52;;;;;;;19.42;11.25;;;;;;;;;;4992404;28;20042;-57
2023/10/16 15:28:18;;;;;;;16.05;9.80;;;;;;;;;;4992677;28;20026;-59
2023/10/16 15:30:44;;;;;;;17.20;10.38;;;;;;;;;;4999727;28;20022;-58
2023/10/16 15:33:10;;;;;;;18.05;10.00;;;;;;;;;;5010646;28;20038;-61
2023/10/16 15:35:38;;;;;;;15.77;9.73;;;;;;;;;;5011968;28;20101;-59
2023/10/16 15:38:06;;;;;;;15.38;10.00;;;;;;;;;;5011787;28;20420;-54
2023/10/16 15:40:32;;;;;;;15.27;9.93;;;;;;;;;;5011512;28;20029;-59
2023/10/16 15:43:02;;;;;;;17.23;10.13;;;;;;;;;;5011785;28;20033;-60
2023/10/16 15:45:37;;;;;;;17.30;10.75;;;;;;;;;;5012080;28;20506;-58
2023/10/16 15:48:05;;;;;;;19.98;10.95;;;;;;;;;;5010482;28;20081;-59
2023/10/16 15:50:31;;;;;;;15.57;9.88;;;;;;;;;;5012297;28;20494;-59
2023/10/16 15:52:58;;;;;;;16.52;9.40;;;;;;;;;;5011700;28;20026;-59
2023/10/16 15:55:25;;;;;;;15.95;9.63;;;;;;;;;;5011848;28;20108;-59
2023/10/16 15:57:52;;;;;;;14.97;9.43;;;;;;;;;;5010722;28;20219;-60
2023/10/16 16:00:18;;;;;;;15.45;9.60;;;;;;;;;;5011475;28;20053;-60
2023/10/16 16:02:44;;;;;;;17.20;10.30;;;;;;;;;;5011702;28;20066;-60
2023/10/16 16:05:11;;;;;;;16.33;10.57;;;;;;;;;;5010824;28;20026;-58
2023/10/16 16:07:37;;;;;;;17.65;10.15;;;;;;;;;;5011466;28;20018;-59
2023/10/16 16:10:06;;;;;;;18.35;9.98;;;;;;;;;;5010548;28;20621;-59
2023/10/16 16:12:32;;;;;;;16.40;10.15;;;;;;;;;;5011086;28;20065;-59
2023/10/16 16:14:59;;;;;;;17.83;10.48;;;;;;;;;;5011514;28;20064;-58